createdAt,value
2023-04-17T00:00:34.766Z,12.10
2023-04-17T00:03:03.539Z,11.93
2023-04-17T00:05:33.829Z,12.00
2023-04-17T00:08:02.408Z,12.35
2023-04-17T00:10:30.795Z,11.60
2023-04-17T00:12:58.989Z,12.30
2023-04-17T00:15:27.302Z,13.68
2023-04-17T00:17:56.917Z,12.35
2023-04-17T00:20:25.137Z,12.25
2023-04-17T00:22:53.365Z,12.50
2023-04-17T00:25:21.672Z,13.70
2023-04-17T00:27:50.636Z,12.35
2023-04-17T00:30:19.198Z,13.15
2023-04-17T00:32:47.430Z,12.93
2023-04-17T00:35:17.364Z,13.93
2023-04-17T00:37:45.548Z,13.80
2023-04-17T00:40:14.461Z,13.20
2023-04-17T00:42:42.674Z,12.45
2023-04-17T00:45:11.875Z,14.68
2023-04-17T00:47:40.386Z,13.85
2023-04-17T00:50:09.812Z,13.43
2023-04-17T00:52:39.450Z,13.15
2023-04-17T00:55:08.904Z,13.73
2023-04-17T00:57:37.354Z,12.60
2023-04-17T01:00:08.483Z,12.85
2023-04-17T01:02:37.598Z,11.15
2023-04-17T01:05:07.002Z,11.43
2023-04-17T01:07:35.349Z,11.30
2023-04-17T01:10:05.608Z,12.20
2023-04-17T01:12:33.856Z,10.68
2023-04-17T01:15:02.425Z,10.48
2023-04-17T01:17:31.348Z,10.93
2023-04-17T01:19:59.828Z,11.32
2023-04-17T01:22:28.026Z,10.35
2023-04-17T01:25:00.859Z,10.35
2023-04-17T01:27:35.283Z,9.82
2023-04-17T01:30:03.826Z,10.55
2023-04-17T01:32:36.343Z,11.27
2023-04-17T01:35:05.227Z,10.65
2023-04-17T01:37:33.425Z,9.77
2023-04-17T01:40:04.937Z,10.50
2023-04-17T01:42:33.147Z,10.52
2023-04-17T01:45:01.310Z,10.25
2023-04-17T01:47:29.662Z,10.27
2023-04-17T01:49:58.059Z,10.25
2023-04-17T01:52:26.364Z,10.25
2023-04-17T01:54:54.644Z,11.25
2023-04-17T01:57:24.266Z,11.57
2023-04-17T01:59:52.502Z,13.02
2023-04-17T02:02:21.001Z,14.75
2023-04-17T02:04:49.389Z,17.50
2023-04-17T02:07:17.619Z,16.25
2023-04-17T02:09:45.948Z,15.98
2023-04-17T02:12:14.175Z,16.17
2023-04-17T02:14:43.831Z,15.50
2023-04-17T02:17:12.026Z,15.52
2023-04-17T02:19:40.257Z,16.77
2023-04-17T02:22:08.514Z,16.73
2023-04-17T02:24:36.704Z,16.80
2023-04-17T02:27:05.006Z,16.08
2023-04-17T02:29:33.382Z,17.00
2023-04-17T02:32:03.036Z,18.60
2023-04-17T02:34:32.134Z,16.73
2023-04-17T02:37:00.745Z,16.80
2023-04-17T02:39:29.107Z,17.58
2023-04-17T02:41:57.560Z,16.20
2023-04-17T02:44:25.904Z,16.00
2023-04-17T02:46:56.571Z,16.00
2023-04-17T02:49:26.717Z,14.20
2023-04-17T02:51:55.473Z,13.88
2023-04-17T02:54:23.814Z,13.38
2023-04-17T02:56:53.270Z,12.95
2023-04-17T02:59:21.705Z,11.65
2023-04-17T03:01:51.005Z,12.10
2023-04-17T03:04:22.227Z,12.15
2023-04-17T03:06:52.701Z,11.75
2023-04-17T03:09:22.441Z,10.65
2023-04-17T03:11:50.668Z,10.02
2023-04-17T03:14:18.907Z,10.85
2023-04-17T03:16:47.347Z,11.00
2023-04-17T03:19:15.818Z,9.23
2023-04-17T03:21:44.047Z,10.40
2023-04-17T03:24:13.711Z,10.20
2023-04-17T03:26:42.433Z,10.95
2023-04-17T03:29:17.256Z,8.60
2023-04-17T03:31:45.571Z,9.57
2023-04-17T03:34:13.876Z,9.00
2023-04-17T03:36:42.570Z,9.30
2023-04-17T03:39:11.300Z,8.68
2023-04-17T03:41:41.155Z,8.27
2023-04-17T03:44:10.212Z,7.80
2023-04-17T03:46:38.933Z,9.25
2023-04-17T03:49:07.362Z,7.88
2023-04-17T03:51:35.784Z,7.28
2023-04-17T03:54:12.175Z,8.27
2023-04-17T03:56:43.373Z,7.95
2023-04-17T03:59:12.638Z,7.63
2023-04-17T04:01:46.027Z,9.02
2023-04-17T04:04:19.694Z,9.05
2023-04-17T04:06:49.484Z,9.00
2023-04-17T04:09:21.441Z,8.32
2023-04-17T04:11:51.162Z,8.25
2023-04-17T04:14:19.556Z,9.02
2023-04-17T04:16:49.861Z,8.70
2023-04-17T04:19:18.237Z,9.88
2023-04-17T04:21:46.531Z,8.95
2023-04-17T04:24:16.143Z,7.85
2023-04-17T04:26:47.407Z,8.63
2023-04-17T04:29:18.033Z,8.57
2023-04-17T04:31:55.644Z,8.13
2023-04-17T04:34:30.142Z,8.68
2023-04-17T04:36:58.371Z,8.30
2023-04-17T04:39:47.351Z,8.75
2023-04-17T04:42:22.589Z,8.85
2023-04-17T04:45:02.387Z,9.45
2023-04-17T04:47:33.082Z,9.23
2023-04-17T04:50:01.481Z,8.75
2023-04-17T04:52:29.770Z,8.88
2023-04-17T04:55:01.882Z,10.05
2023-04-17T04:57:31.983Z,9.45
2023-04-17T05:00:06.447Z,9.00
2023-04-17T05:02:39.863Z,8.65
2023-04-17T05:05:10.849Z,8.65
2023-04-17T05:07:39.094Z,9.80
2023-04-17T05:10:11.477Z,8.75
2023-04-17T05:12:44.555Z,10.88
2023-04-17T05:15:15.624Z,10.80
2023-04-17T05:17:44.975Z,10.07
2023-04-17T05:20:15.532Z,10.18
2023-04-17T05:22:50.658Z,13.45
2023-04-17T05:25:19.801Z,14.90
2023-04-17T05:27:48.852Z,16.02
2023-04-17T05:30:20.048Z,18.00
2023-04-17T05:32:54.485Z,18.25
2023-04-17T05:35:42.132Z,18.10
2023-04-17T05:38:10.436Z,16.52
2023-04-17T05:40:38.745Z,16.60
2023-04-17T05:43:09.131Z,15.27
2023-04-17T05:45:41.488Z,15.05
2023-04-17T05:48:10.957Z,13.50
2023-04-17T05:50:39.305Z,14.07
2023-04-17T05:53:08.887Z,15.43
2023-04-17T05:55:43.803Z,14.63
2023-04-17T06:00:47.002Z,13.07
2023-04-17T06:03:18.812Z,13.50
2023-04-17T06:05:49.638Z,13.00
2023-04-17T06:08:17.851Z,12.65
2023-04-17T06:10:46.673Z,11.57
2023-04-17T06:13:14.881Z,11.95
2023-04-17T06:15:48.603Z,11.48
2023-04-17T06:18:17.673Z,11.80
2023-04-17T06:20:46.169Z,11.80
2023-04-17T06:23:14.385Z,11.32
2023-04-17T06:25:43.606Z,11.43
2023-04-17T06:28:11.892Z,12.10
2023-04-17T06:30:40.339Z,9.57
2023-04-17T06:33:10.811Z,9.82
2023-04-17T06:35:39.333Z,11.05
2023-04-17T06:38:30.489Z,11.25
2023-04-17T06:40:58.920Z,11.10
2023-04-17T06:43:27.180Z,10.95
2023-04-17T06:45:55.529Z,9.52
2023-04-17T06:48:25.180Z,10.10
2023-04-17T06:50:53.507Z,13.23
2023-04-17T06:53:22.054Z,10.90
2023-04-17T06:55:50.324Z,10.40
2023-04-17T06:58:18.643Z,10.20
2023-04-17T07:00:46.901Z,10.40
2023-04-17T07:03:15.272Z,10.15
2023-04-17T07:05:46.574Z,10.77
2023-04-17T07:08:16.088Z,11.07
2023-04-17T07:10:44.396Z,10.85
2023-04-17T07:13:12.634Z,10.25
2023-04-17T07:15:41.070Z,10.30
2023-04-17T07:18:09.426Z,11.45
2023-04-17T07:20:37.679Z,11.15
2023-04-17T07:23:07.274Z,9.52
2023-04-17T07:25:35.547Z,9.73
2023-04-17T07:28:04.618Z,9.35
2023-04-17T07:30:33.131Z,9.45
2023-04-17T07:33:02.049Z,9.90
2023-04-17T07:35:30.398Z,9.80
2023-04-17T07:38:01.496Z,9.48
2023-04-17T07:40:33.365Z,8.75
2023-04-17T07:43:01.547Z,9.50
2023-04-17T07:45:29.774Z,10.20
2023-04-17T07:47:58.049Z,9.10
2023-04-17T07:50:26.618Z,8.97
2023-04-17T07:52:54.954Z,10.30
2023-04-17T07:55:23.258Z,8.87
2023-04-17T07:57:53.144Z,9.63
2023-04-17T08:00:21.806Z,8.67
2023-04-17T08:02:50.258Z,8.00
2023-04-17T08:05:18.835Z,8.50
2023-04-17T08:07:47.144Z,8.30
2023-04-17T08:10:15.493Z,9.13
2023-04-17T08:12:43.946Z,8.93
2023-04-17T08:15:13.931Z,9.57
2023-04-17T08:17:42.180Z,8.93
2023-04-17T08:20:11.380Z,9.07
2023-04-17T08:22:40.752Z,8.67
2023-04-17T08:25:10.405Z,8.80
2023-04-17T08:27:39.920Z,9.83
2023-04-17T08:30:12.941Z,9.63
2023-04-17T08:32:45.886Z,8.70
2023-04-17T08:35:15.679Z,8.70
2023-04-17T08:37:46.839Z,8.50
2023-04-17T08:40:16.106Z,9.43
2023-04-17T08:42:44.333Z,9.50
2023-04-17T08:45:14.586Z,8.95
2023-04-17T08:47:45.076Z,9.77
2023-04-17T08:50:15.066Z,10.73
2023-04-17T08:52:44.193Z,9.80
2023-04-17T08:55:14.053Z,9.48
2023-04-17T08:57:58.697Z,10.25
2023-04-17T09:00:28.465Z,10.18
2023-04-17T09:03:01.135Z,11.93
2023-04-17T09:05:34.486Z,11.25
2023-04-17T09:08:12.402Z,10.63
2023-04-17T09:10:42.132Z,9.77
2023-04-17T09:13:12.296Z,8.70
2023-04-17T09:15:40.632Z,10.33
2023-04-17T09:18:25.298Z,10.07
2023-04-17T09:20:53.798Z,10.07
2023-04-17T09:23:22.829Z,9.23
2023-04-17T09:26:07.698Z,9.77
2023-04-17T09:28:37.013Z,9.23
2023-04-17T09:31:06.760Z,9.03
2023-04-17T09:33:36.369Z,9.60
2023-04-17T09:36:23.413Z,9.63
2023-04-17T09:38:51.753Z,8.95
2023-04-17T09:41:24.007Z,11.40
2023-04-17T09:43:54.943Z,11.73
2023-04-17T09:46:33.635Z,14.38
2023-04-17T09:49:10.008Z,12.88
2023-04-17T09:51:38.783Z,11.98
2023-04-17T09:54:08.033Z,13.77
2023-04-17T09:56:37.997Z,12.50
2023-04-17T09:59:07.358Z,12.15
2023-04-17T10:01:37.030Z,12.85
2023-04-17T10:04:07.755Z,12.75
2023-04-17T10:06:36.817Z,12.60
2023-04-17T10:09:05.867Z,13.30
2023-04-17T10:11:37.481Z,12.85
2023-04-17T10:14:14.999Z,11.82
2023-04-17T10:16:44.035Z,11.57
2023-04-17T10:19:27.870Z,10.93
2023-04-17T10:22:30.796Z,10.32
2023-04-17T10:25:26.747Z,10.23
2023-04-17T10:27:58.358Z,10.30
2023-04-17T10:30:50.907Z,9.73
2023-04-17T10:33:24.904Z,8.57
2023-04-17T10:35:55.404Z,10.10
2023-04-17T10:38:34.679Z,8.50
2023-04-17T10:41:05.112Z,8.98
2023-04-17T10:43:33.482Z,8.98
2023-04-17T10:46:06.682Z,8.70
2023-04-17T10:48:38.353Z,9.07
2023-04-17T10:51:42.652Z,9.90
2023-04-17T10:54:15.756Z,9.60
2023-04-17T10:56:48.338Z,9.30
2023-04-17T10:59:17.648Z,10.10
2023-04-17T11:02:01.583Z,10.40
2023-04-17T11:04:32.082Z,10.10
2023-04-17T11:07:01.955Z,9.13
2023-04-17T11:09:30.930Z,10.50
2023-04-17T11:12:02.988Z,10.50
2023-04-17T11:14:31.587Z,10.47
2023-04-17T11:16:59.937Z,9.57
2023-04-17T11:19:28.450Z,11.20
2023-04-17T11:21:58.862Z,11.30
2023-04-17T11:24:30.187Z,12.17
2023-04-17T11:27:01.184Z,12.13
2023-04-17T11:29:29.679Z,10.73
2023-04-17T11:31:59.191Z,11.67
2023-04-17T11:34:27.863Z,11.70
2023-04-17T11:36:57.557Z,12.40
2023-04-17T11:39:29.839Z,11.13
2023-04-17T11:41:58.090Z,11.63
2023-04-17T11:44:27.177Z,11.40
2023-04-17T11:46:59.497Z,11.43
2023-04-17T11:49:28.388Z,10.20
2023-04-17T11:51:59.780Z,11.90
2023-04-17T11:54:29.562Z,11.37
2023-04-17T11:57:02.819Z,12.40
2023-04-17T11:59:31.790Z,11.97
2023-04-17T12:02:00.812Z,10.70
2023-04-17T12:04:31.104Z,11.13
2023-04-17T12:06:59.826Z,12.30
2023-04-17T12:09:31.976Z,12.03
2023-04-17T12:12:01.332Z,13.60
2023-04-17T12:14:29.821Z,12.00
2023-04-17T12:16:58.237Z,11.53
2023-04-17T12:19:28.049Z,10.80
2023-04-17T12:21:56.919Z,8.77
2023-04-17T12:24:25.496Z,8.37
2023-04-17T12:26:55.118Z,9.57
2023-04-17T12:29:36.010Z,8.37
2023-04-17T12:32:11.818Z,7.73
2023-04-17T12:34:40.549Z,8.87
2023-04-17T12:37:09.099Z,7.60
2023-04-17T12:39:37.474Z,8.60
2023-04-17T12:42:07.167Z,9.40
2023-04-17T12:44:36.034Z,8.00
2023-04-17T12:47:05.389Z,7.70
2023-04-17T12:49:33.881Z,7.77
2023-04-17T12:52:03.564Z,6.90
2023-04-17T12:54:33.095Z,7.10
2023-04-17T12:57:01.589Z,7.13
2023-04-17T12:59:31.322Z,7.27
2023-04-17T13:01:59.645Z,7.47
2023-04-17T13:04:28.398Z,7.37
2023-04-17T13:06:56.809Z,7.13
2023-04-17T13:09:25.110Z,8.70
2023-04-17T13:11:53.460Z,8.30
2023-04-17T13:14:21.842Z,7.90
2023-04-17T13:16:51.754Z,7.83
2023-04-17T13:19:20.296Z,7.80
2023-04-17T13:21:48.714Z,6.43
2023-04-17T13:24:16.918Z,6.50
2023-04-17T13:26:45.431Z,5.80
2023-04-17T13:29:14.776Z,5.47
2023-04-17T13:31:44.960Z,5.73
2023-04-17T13:34:14.485Z,5.40
2023-04-17T13:36:45.060Z,4.67
2023-04-17T13:39:13.716Z,6.27
2023-04-17T13:41:42.209Z,6.53
2023-04-17T13:44:10.772Z,7.10
2023-04-17T13:46:39.103Z,5.40
2023-04-17T13:49:07.816Z,5.50
2023-04-17T13:51:37.830Z,5.10
2023-04-17T13:54:06.703Z,5.70
2023-04-17T13:56:35.014Z,6.00
2023-04-17T13:59:04.682Z,5.70
2023-04-17T14:01:32.979Z,5.57
2023-04-17T14:04:01.717Z,5.40
2023-04-17T14:06:31.233Z,5.07
2023-04-17T14:09:00.767Z,5.40
2023-04-17T14:11:29.070Z,5.20
2023-04-17T14:13:57.400Z,5.10
2023-04-17T14:16:25.676Z,5.23
2023-04-17T14:18:53.939Z,5.10
2023-04-17T14:21:23.027Z,4.00
2023-04-17T14:23:59.178Z,4.80
2023-04-17T14:26:27.613Z,4.37
2023-04-17T14:28:55.977Z,5.47
2023-04-17T14:31:24.242Z,4.60
2023-04-17T14:33:52.615Z,5.10
2023-04-17T14:36:21.010Z,5.23
2023-04-17T14:38:51.283Z,5.13
2023-04-17T14:41:21.062Z,4.83
2023-04-17T14:43:49.738Z,4.40
2023-04-17T14:46:18.246Z,4.90
2023-04-17T14:51:17.707Z,5.47
2023-04-17T14:53:45.968Z,5.27
2023-04-17T14:56:14.358Z,5.07
2023-04-17T14:58:44.260Z,5.40
2023-04-17T15:01:12.569Z,4.90
2023-04-17T15:03:41.687Z,4.93
2023-04-17T15:06:11.520Z,5.30
2023-04-17T15:08:40.462Z,4.77
2023-04-17T15:11:08.980Z,5.83
2023-04-17T15:13:37.254Z,4.90
2023-04-17T15:16:07.920Z,5.53
2023-04-17T15:18:36.246Z,5.77
2023-04-17T15:21:04.662Z,5.60
2023-04-17T15:23:34.777Z,5.20
2023-04-17T15:26:03.292Z,6.07
2023-04-17T15:28:31.874Z,5.40
2023-04-17T15:31:02.334Z,5.53
2023-04-17T15:33:32.021Z,5.83
2023-04-17T15:36:01.066Z,5.83
2023-04-17T15:38:29.275Z,5.73
2023-04-17T15:40:57.487Z,5.30
2023-04-17T15:43:26.951Z,5.73
2023-04-17T15:45:55.970Z,5.60
2023-04-17T15:48:24.485Z,4.80
2023-04-17T15:50:54.160Z,3.83
2023-04-17T15:53:22.345Z,3.80
2023-04-17T15:55:51.027Z,4.43
2023-04-17T15:58:19.780Z,4.03
2023-04-17T16:00:48.046Z,4.73
2023-04-17T16:03:16.590Z,4.10
2023-04-17T16:05:45.311Z,4.10
2023-04-17T16:08:14.853Z,3.70
2023-04-17T16:10:43.176Z,4.10
2023-04-17T16:13:11.443Z,4.00
2023-04-17T16:15:39.739Z,4.20
2023-04-17T16:18:08.132Z,5.07
2023-04-17T16:20:36.460Z,5.20
2023-04-17T16:23:04.825Z,4.90
2023-04-17T16:25:34.587Z,6.50
2023-04-17T16:28:03.375Z,5.80
2023-04-17T16:30:31.606Z,5.23
2023-04-17T16:33:03.141Z,5.53
2023-04-17T16:35:31.410Z,4.80
2023-04-17T16:38:01.486Z,4.80
2023-04-17T16:40:30.963Z,4.00
2023-04-17T16:43:01.109Z,4.40
2023-04-17T16:45:29.576Z,4.40
2023-04-17T16:47:57.873Z,3.73
2023-04-17T16:50:26.076Z,4.17
2023-04-17T16:52:54.384Z,4.03
2023-04-17T16:55:22.921Z,3.70
2023-04-17T16:57:51.138Z,3.40
2023-04-17T17:00:21.224Z,4.33
2023-04-17T17:02:49.761Z,4.10
2023-04-17T17:05:18.071Z,4.57
2023-04-17T17:07:46.381Z,3.10
2023-04-17T17:10:15.137Z,3.83
2023-04-17T17:12:43.409Z,3.47
2023-04-17T17:15:12.815Z,4.20
2023-04-17T17:17:43.142Z,4.93
2023-04-17T17:20:11.932Z,6.50
2023-04-17T17:22:40.160Z,6.50
2023-04-17T17:25:09.328Z,6.00
2023-04-17T17:27:37.560Z,6.13
2023-04-17T17:30:06.514Z,5.60
2023-04-17T17:32:34.866Z,6.13
2023-04-17T17:35:04.511Z,5.25
2023-04-17T17:37:32.849Z,5.05
2023-04-17T17:40:03.267Z,5.57
2023-04-17T17:42:31.870Z,6.50
2023-04-17T17:45:00.118Z,7.38
2023-04-17T17:47:28.455Z,6.72
2023-04-17T17:49:56.905Z,5.70
2023-04-17T17:52:26.636Z,6.93
2023-04-17T17:54:54.975Z,6.55
2023-04-17T17:57:23.193Z,6.20
2023-04-17T17:59:51.658Z,5.82
2023-04-17T18:02:20.181Z,6.68
2023-04-17T18:04:48.658Z,6.07
2023-04-17T18:07:17.087Z,7.25
2023-04-17T18:09:48.392Z,7.25
2023-04-17T18:12:18.561Z,7.45
2023-04-17T18:14:46.714Z,5.63
2023-04-17T18:17:14.888Z,6.45
2023-04-17T18:19:43.119Z,6.05
2023-04-17T18:22:11.534Z,5.68
2023-04-17T18:24:39.777Z,6.35
2023-04-17T18:27:09.464Z,8.98
2023-04-17T18:29:37.672Z,10.00
2023-04-17T18:32:06.142Z,8.27
2023-04-17T18:34:34.363Z,7.15
2023-04-17T18:37:02.543Z,8.85
2023-04-17T18:39:30.956Z,14.07
2023-04-17T18:41:59.704Z,10.40
2023-04-17T18:44:29.249Z,10.43
2023-04-17T18:46:57.574Z,10.73
2023-04-17T18:49:27.550Z,9.20
2023-04-17T18:51:55.771Z,8.95
2023-04-17T18:54:24.376Z,8.93
2023-04-17T18:56:52.575Z,9.48
2023-04-17T18:59:21.413Z,9.23
2023-04-17T19:01:51.061Z,9.85
2023-04-17T19:04:19.187Z,10.32
2023-04-17T19:06:47.497Z,9.45
2023-04-17T19:09:15.780Z,7.47
2023-04-17T19:11:44.248Z,7.57
2023-04-17T19:14:12.741Z,8.85
2023-04-17T19:16:41.093Z,8.57
2023-04-17T19:19:13.676Z,8.65
2023-04-17T19:21:42.509Z,8.13
2023-04-17T19:24:10.776Z,7.65
2023-04-17T19:26:39.485Z,7.65
2023-04-17T19:29:07.701Z,8.45
2023-04-17T19:31:36.245Z,7.53
2023-04-17T19:34:06.978Z,7.03
2023-04-17T19:36:36.586Z,7.43
2023-04-17T19:39:05.004Z,7.65
2023-04-17T19:41:33.313Z,8.43
2023-04-17T19:44:01.505Z,8.00
2023-04-17T19:46:29.848Z,8.40
2023-04-17T19:48:58.249Z,8.82
2023-04-17T19:51:26.553Z,9.63
2023-04-17T19:53:56.128Z,10.40
2023-04-17T19:56:24.463Z,11.60
2023-04-17T19:58:52.685Z,17.02
2023-04-17T20:01:20.985Z,17.83
2023-04-17T20:03:49.343Z,23.02
2023-04-17T20:06:17.646Z,30.05
2023-04-17T20:08:46.000Z,40.22
2023-04-17T20:11:17.529Z,34.75
2023-04-17T20:13:45.794Z,34.63
2023-04-17T20:16:14.098Z,29.95
2023-04-17T20:18:43.537Z,27.95
2023-04-17T20:21:12.326Z,29.42
2023-04-17T20:23:40.710Z,33.63
2023-04-17T20:26:08.939Z,33.47
2023-04-17T20:28:38.526Z,28.63
2023-04-17T20:31:06.829Z,26.58
2023-04-17T20:33:35.198Z,19.83
2023-04-17T20:36:03.645Z,20.35
2023-04-17T20:38:31.835Z,18.77
2023-04-17T20:41:00.145Z,17.85
2023-04-17T20:43:28.319Z,17.88
2023-04-17T20:45:59.065Z,18.10
2023-04-17T20:48:27.359Z,14.60
2023-04-17T20:50:56.862Z,15.35
2023-04-17T20:53:25.137Z,14.75
2023-04-17T20:55:54.213Z,14.70
2023-04-17T20:58:23.051Z,15.45
2023-04-17T21:01:00.748Z,14.30
2023-04-17T21:03:31.839Z,13.15
2023-04-17T21:06:00.732Z,14.20
2023-04-17T21:08:29.122Z,10.73
2023-04-17T21:10:57.410Z,9.98
2023-04-17T21:13:25.692Z,10.18
2023-04-17T21:15:53.932Z,10.98
2023-04-17T21:18:22.571Z,10.57
2023-04-17T21:20:52.226Z,11.23
2023-04-17T21:23:20.567Z,11.15
2023-04-17T21:25:51.820Z,11.07
2023-04-17T21:28:20.109Z,10.95
2023-04-17T21:30:48.307Z,10.50
2023-04-17T21:33:16.833Z,9.80
2023-04-17T21:35:45.251Z,10.50
2023-04-17T21:38:15.242Z,9.98
2023-04-17T21:40:50.891Z,10.13
2023-04-17T21:43:19.760Z,10.88
2023-04-17T21:45:48.183Z,11.55
2023-04-17T21:48:16.677Z,10.55
2023-04-17T21:50:44.935Z,11.35
2023-04-17T21:53:14.500Z,11.15
2023-04-17T21:55:43.180Z,11.77
2023-04-17T21:58:11.334Z,12.00
2023-04-17T22:00:39.578Z,11.18
2023-04-17T22:03:07.959Z,11.82
2023-04-17T22:05:36.743Z,10.82
2023-04-17T22:08:04.949Z,11.35
2023-04-17T22:10:34.598Z,10.88
2023-04-17T22:13:02.815Z,10.52
2023-04-17T22:15:31.083Z,10.88
2023-04-17T22:17:59.796Z,11.43
2023-04-17T22:20:28.288Z,11.05
2023-04-17T22:22:56.439Z,10.65
2023-04-17T22:25:24.756Z,10.40
2023-04-17T22:27:54.376Z,11.68
2023-04-17T22:30:22.794Z,11.40
2023-04-17T22:32:51.241Z,11.50
2023-04-17T22:35:19.599Z,12.23
2023-04-17T22:37:47.832Z,11.55
2023-04-17T22:40:15.982Z,11.10
2023-04-17T22:42:44.275Z,11.73
2023-04-17T22:45:13.970Z,10.85
2023-04-17T22:47:42.192Z,10.45
2023-04-17T22:50:11.694Z,10.73
2023-04-17T22:52:39.817Z,10.77
2023-04-17T22:55:08.679Z,10.88
2023-04-17T22:57:36.858Z,10.10
2023-04-17T23:00:06.493Z,9.98
2023-04-17T23:02:36.890Z,12.70
2023-04-17T23:05:05.693Z,11.15
2023-04-17T23:07:33.870Z,12.27
2023-04-17T23:10:02.093Z,11.27
2023-04-17T23:12:30.625Z,12.15
2023-04-17T23:14:59.145Z,11.50
2023-04-17T23:17:27.310Z,11.90
2023-04-17T23:19:56.985Z,11.80
2023-04-17T23:22:25.157Z,12.70
2023-04-17T23:24:53.402Z,12.25
2023-04-17T23:27:22.023Z,11.00
2023-04-17T23:29:50.556Z,11.38
2023-04-17T23:32:18.744Z,11.82
2023-04-17T23:34:47.025Z,12.30
2023-04-17T23:37:17.071Z,11.82
2023-04-17T23:39:45.311Z,10.77
2023-04-17T23:42:14.150Z,9.75
2023-04-17T23:44:42.486Z,10.30
2023-04-17T23:47:11.222Z,10.70
2023-04-17T23:49:39.561Z,11.77
2023-04-17T23:52:07.719Z,10.55
2023-04-17T23:54:37.470Z,10.63
2023-04-17T23:57:06.017Z,9.60
2023-04-17T23:59:34.300Z,11.45
